createdAt,value
2016-10-04T00:00:26.941Z,99.99
2016-10-04T00:01:26.961Z,99.99
2016-10-04T00:02:26.983Z,99.99
2016-10-04T00:03:27.005Z,99.99
2016-10-04T00:04:27.027Z,99.99
2016-10-04T00:05:27.068Z,99.99
2016-10-04T00:06:27.076Z,99.99
2016-10-04T00:07:42.021Z,99.99
2016-10-04T00:08:27.127Z,99.99
2016-10-04T00:09:27.144Z,99.99
2016-10-04T00:10:27.167Z,99.99
2016-10-04T00:11:27.193Z,99.99
2016-10-04T00:12:27.214Z,99.99
2016-10-04T00:13:27.235Z,99.99
2016-10-04T00:14:27.259Z,99.99
2016-10-04T00:15:27.282Z,99.99
2016-10-04T00:16:27.306Z,99.99
2016-10-04T00:17:27.331Z,99.99
2016-10-04T00:18:27.354Z,99.99
2016-10-04T00:19:27.377Z,99.99
2016-10-04T00:20:27.400Z,99.99
2016-10-04T00:21:27.419Z,99.99
2016-10-04T00:22:42.366Z,99.99
2016-10-04T00:23:27.467Z,99.99
2016-10-04T00:24:27.486Z,99.99
2016-10-04T00:25:27.509Z,99.99
2016-10-04T00:26:27.534Z,99.99
2016-10-04T00:27:27.561Z,99.99
2016-10-04T00:28:27.580Z,99.99
2016-10-04T00:29:27.603Z,99.99
2016-10-04T00:30:27.622Z,99.99
2016-10-04T00:31:27.647Z,99.99
2016-10-04T00:32:27.669Z,99.99
2016-10-04T00:33:27.698Z,99.99
2016-10-04T00:34:27.719Z,99.99
2016-10-04T00:35:27.788Z,99.99
2016-10-04T00:36:27.770Z,99.99
2016-10-04T00:37:27.780Z,99.99
2016-10-04T00:38:27.802Z,99.99
2016-10-04T00:39:27.830Z,99.99
2016-10-04T00:40:27.848Z,99.99
2016-10-04T00:41:27.877Z,99.99
2016-10-04T00:42:27.894Z,99.99
2016-10-04T00:43:27.919Z,99.99
2016-10-04T00:44:28.242Z,99.99
2016-10-04T00:45:27.962Z,99.99
2016-10-04T00:46:27.991Z,99.99
2016-10-04T00:47:28.009Z,99.99
2016-10-04T00:48:28.040Z,99.99
2016-10-04T00:49:28.054Z,99.99
2016-10-04T00:50:28.079Z,99.99
2016-10-04T00:51:28.100Z,99.99
2016-10-04T00:52:28.122Z,99.99
2016-10-04T00:53:28.149Z,99.99
2016-10-04T00:54:43.096Z,99.99
2016-10-04T00:55:28.196Z,99.99
2016-10-04T00:56:28.217Z,99.99
2016-10-04T00:57:28.238Z,99.99
2016-10-04T00:58:28.309Z,99.99
2016-10-04T00:59:28.284Z,99.99
2016-10-04T01:00:28.311Z,99.99
2016-10-04T01:01:28.328Z,99.99
2016-10-04T01:02:28.347Z,99.99
2016-10-04T01:03:28.374Z,99.99
2016-10-04T01:04:28.398Z,99.99
2016-10-04T01:06:28.440Z,99.99
2016-10-04T01:07:28.468Z,99.99
2016-10-04T01:08:28.493Z,99.99
2016-10-04T01:10:43.454Z,99.99
2016-10-04T01:11:28.556Z,99.99
2016-10-04T01:12:28.581Z,99.99
2016-10-04T01:13:28.603Z,99.99
2016-10-04T01:14:28.621Z,99.99
2016-10-04T01:15:28.895Z,99.99
2016-10-04T01:16:28.671Z,99.99
2016-10-04T01:17:28.688Z,99.99
2016-10-04T01:18:28.718Z,99.99
2016-10-04T01:19:28.736Z,99.99
2016-10-04T01:20:28.764Z,99.99
2016-10-04T01:21:28.782Z,99.99
2016-10-04T01:22:28.802Z,99.99
2016-10-04T01:23:28.825Z,99.99
2016-10-04T01:24:29.100Z,99.99
2016-10-04T01:26:43.816Z,99.99
2016-10-04T01:28:28.936Z,99.99
2016-10-04T01:29:29.014Z,99.99
2016-10-04T01:30:28.989Z,99.99
2016-10-04T01:31:29.007Z,99.99
2016-10-04T01:32:29.028Z,99.99
2016-10-04T01:33:29.055Z,99.99
2016-10-04T01:34:29.074Z,99.99
2016-10-04T01:35:29.096Z,99.99
2016-10-04T01:36:29.122Z,99.99
2016-10-04T01:37:29.142Z,99.99
2016-10-04T01:38:29.166Z,99.99
2016-10-04T01:39:29.187Z,99.99
2016-10-04T01:40:29.216Z,99.99
2016-10-04T01:41:29.233Z,99.99
2016-10-04T01:42:44.177Z,99.99
2016-10-04T01:43:29.278Z,99.99
2016-10-04T01:44:29.304Z,99.99
2016-10-04T01:45:29.326Z,99.99
2016-10-04T01:46:29.348Z,99.99
2016-10-04T01:47:29.370Z,99.99
2016-10-04T01:48:29.391Z,99.99
2016-10-04T01:49:29.413Z,99.99
2016-10-04T01:50:29.439Z,99.99
2016-10-04T01:51:29.463Z,99.99
2016-10-04T01:52:29.486Z,99.99
2016-10-04T01:53:29.499Z,99.99
2016-10-04T01:54:29.527Z,99.99
2016-10-04T01:55:29.553Z,99.99
2016-10-04T01:56:29.570Z,99.99
2016-10-04T01:57:44.518Z,99.99
2016-10-04T01:58:29.616Z,99.99
2016-10-04T01:59:29.642Z,99.99
2016-10-04T02:00:29.667Z,99.99
2016-10-04T02:01:29.680Z,99.99
2016-10-04T02:02:29.709Z,99.99
2016-10-04T02:03:29.780Z,99.99
2016-10-04T02:04:29.747Z,99.99
2016-10-04T02:05:29.772Z,99.99
2016-10-04T02:09:29.864Z,99.99
2016-10-04T02:10:29.936Z,99.99
2016-10-04T02:11:29.962Z,99.99
2016-10-04T02:12:29.930Z,99.99
2016-10-04T02:13:29.956Z,99.99
2016-10-04T02:15:29.997Z,99.99
2016-10-04T02:16:30.024Z,99.99
2016-10-04T02:17:30.047Z,99.99
2016-10-04T02:18:30.064Z,99.99
2016-10-04T02:19:30.091Z,99.99
2016-10-04T02:20:30.113Z,99.99
2016-10-04T02:21:30.135Z,99.99
2016-10-04T02:22:30.158Z,99.99
2016-10-04T02:23:30.175Z,99.99
2016-10-04T02:24:30.198Z,99.99
2016-10-04T02:26:30.245Z,99.99
2016-10-04T02:27:30.273Z,99.99
2016-10-04T02:28:30.288Z,99.99
2016-10-04T02:29:45.235Z,99.99
2016-10-04T02:30:30.334Z,99.99
2016-10-04T02:31:30.358Z,99.99
2016-10-04T02:32:30.378Z,99.99
2016-10-04T02:33:30.450Z,99.99
2016-10-04T02:34:30.424Z,99.99
2016-10-04T02:35:30.450Z,99.99
2016-10-04T02:36:30.469Z,99.99
2016-10-04T02:37:30.495Z,99.99
2016-10-04T02:38:30.517Z,99.99
2016-10-04T02:39:30.547Z,99.99
2016-10-04T02:40:30.562Z,99.99
2016-10-04T02:41:30.591Z,99.99
2016-10-04T02:42:30.609Z,99.99
2016-10-04T02:43:30.631Z,99.99
2016-10-04T02:45:45.596Z,99.99
2016-10-04T02:46:30.698Z,99.99
2016-10-04T02:47:30.718Z,99.99
2016-10-04T02:48:30.740Z,99.99
2016-10-04T02:49:30.764Z,99.99
2016-10-04T02:50:30.783Z,99.99
2016-10-04T02:51:31.056Z,99.99
2016-10-04T02:52:30.830Z,99.99
2016-10-04T02:53:30.904Z,99.99
2016-10-04T02:54:30.871Z,99.99
2016-10-04T02:55:30.897Z,99.99
2016-10-04T02:56:30.918Z,99.99
2016-10-04T02:57:30.994Z,99.99
2016-10-04T02:59:30.986Z,99.99
2016-10-04T03:00:31.011Z,99.99
2016-10-04T03:01:45.953Z,99.99
2016-10-04T03:02:31.052Z,99.99
2016-10-04T03:03:31.077Z,99.99
2016-10-04T03:04:31.099Z,99.99
2016-10-04T03:05:31.122Z,99.99
2016-10-04T03:06:31.140Z,99.99
2016-10-04T03:07:31.168Z,99.99
2016-10-04T03:08:31.187Z,99.99
2016-10-04T03:10:31.231Z,99.99
2016-10-04T03:11:31.252Z,99.8
2016-10-04T03:12:31.273Z,99.71
2016-10-04T03:13:31.297Z,99.32
2016-10-04T03:14:31.319Z,99.52
2016-10-04T03:15:31.344Z,99.52
2016-10-04T03:16:31.363Z,99.9
2016-10-04T03:17:46.309Z,99.61
2016-10-04T03:18:31.409Z,99.52
2016-10-04T03:19:31.432Z,98.94
2016-10-04T03:20:31.454Z,98.66
2016-10-04T03:21:31.480Z,98.37
2016-10-04T03:22:31.499Z,98.56
2016-10-04T03:23:31.518Z,98.66
2016-10-04T03:24:31.545Z,98.56
2016-10-04T03:25:31.565Z,98.37
2016-10-04T03:26:31.590Z,98.94
2016-10-04T03:27:31.711Z,98.27
2016-10-04T03:28:31.634Z,98.27
2016-10-04T03:29:31.664Z,98.18
2016-10-04T03:30:31.706Z,98.75
2016-10-04T03:31:31.702Z,97.89
2016-10-04T03:32:46.646Z,98.37
2016-10-04T03:33:31.750Z,98.99
2016-10-04T03:34:31.767Z,97.75
2016-10-04T03:35:31.805Z,97.42
2016-10-04T03:36:31.811Z,97.99
2016-10-04T03:37:32.140Z,97.56
2016-10-04T03:38:32.164Z,97.71
2016-10-04T03:39:31.883Z,96.84
2016-10-04T03:40:31.902Z,96.17
2016-10-04T03:41:31.929Z,96.27
2016-10-04T03:42:31.946Z,96.22
2016-10-04T03:43:31.973Z,96.03
2016-10-04T03:44:31.992Z,96.41
2016-10-04T03:45:32.017Z,96.13
2016-10-04T03:46:32.040Z,96.7
2016-10-04T03:47:32.060Z,95.94
2016-10-04T03:48:32.087Z,96.89
2016-10-04T03:49:32.116Z,96.13
2016-10-04T03:50:32.128Z,95.51
2016-10-04T03:51:32.149Z,95.75
2016-10-04T03:53:32.193Z,95.12
2016-10-04T03:54:32.221Z,95.61
2016-10-04T03:55:32.242Z,95.79
2016-10-04T03:56:32.262Z,95.79
2016-10-04T03:57:32.283Z,95.32
2016-10-04T03:58:32.306Z,95.12
2016-10-04T04:00:32.655Z,95.17
2016-10-04T04:01:32.373Z,94.98
2016-10-04T04:02:32.395Z,95.17
2016-10-04T04:03:32.724Z,96.13
2016-10-04T04:04:47.363Z,95.46
2016-10-04T04:05:32.464Z,95.94
2016-10-04T04:06:32.493Z,96.13
2016-10-04T04:07:32.510Z,96.13
2016-10-04T04:08:32.530Z,95.65
2016-10-04T04:09:32.554Z,95.08
2016-10-04T04:11:32.898Z,94.51
2016-10-04T04:12:32.628Z,94.22
2016-10-04T04:13:32.642Z,94.41
2016-10-04T04:14:32.763Z,94.51
2016-10-04T04:16:32.711Z,93.84
2016-10-04T04:17:32.735Z,94.6
2016-10-04T04:18:32.758Z,94.89
2016-10-04T04:19:32.785Z,94.98
2016-10-04T04:20:47.721Z,94.89
2016-10-04T04:21:32.829Z,95.08
2016-10-04T04:22:32.847Z,95.27
2016-10-04T04:23:32.870Z,94.79
2016-10-04T04:24:32.888Z,94.89
2016-10-04T04:25:32.909Z,95.08
2016-10-04T04:26:32.934Z,95.17
2016-10-04T04:27:32.955Z,95.98
2016-10-04T04:28:32.977Z,94.93
2016-10-04T04:29:33.010Z,95.08
2016-10-04T04:30:33.020Z,95.27
2016-10-04T04:31:33.045Z,95.03
2016-10-04T04:32:33.073Z,95.46
2016-10-04T04:33:33.089Z,95.03
2016-10-04T04:34:33.109Z,95.08
2016-10-04T04:36:48.078Z,95.27
2016-10-04T04:37:33.177Z,95.03
2016-10-04T04:38:33.201Z,94.84
2016-10-04T04:39:33.220Z,94.98
2016-10-04T04:40:33.247Z,94.98
2016-10-04T04:41:33.266Z,95.12
2016-10-04T04:42:33.290Z,95.32
2016-10-04T04:43:33.309Z,94.89
2016-10-04T04:44:33.333Z,94.65
2016-10-04T04:45:33.353Z,94.65
2016-10-04T04:46:33.378Z,93.74
2016-10-04T04:49:33.441Z,95.03
2016-10-04T04:50:33.465Z,95.22
2016-10-04T04:51:33.484Z,95.03
2016-10-04T04:52:48.431Z,94.27
2016-10-04T04:53:33.533Z,93.79
2016-10-04T04:54:33.555Z,94.46
2016-10-04T04:55:33.578Z,94.46
2016-10-04T04:56:33.615Z,93.79
2016-10-04T04:57:33.618Z,94.79
2016-10-04T04:58:33.645Z,94.84
2016-10-04T04:59:33.666Z,95.03
2016-10-04T05:00:33.684Z,95.22
2016-10-04T05:01:33.711Z,94.56
2016-10-04T05:02:33.728Z,94.65
2016-10-04T05:03:33.752Z,94.56
2016-10-04T05:04:33.773Z,94.37
2016-10-04T05:05:33.800Z,94.46
2016-10-04T05:06:33.823Z,94.65
2016-10-04T05:07:48.762Z,94.56
2016-10-04T05:08:33.861Z,95.03
2016-10-04T05:09:33.884Z,95.03
2016-10-04T05:10:33.906Z,94.84
2016-10-04T05:11:33.927Z,94.74
2016-10-04T05:12:33.952Z,95.22
2016-10-04T05:13:33.973Z,95.51
2016-10-04T05:14:33.992Z,95.61
2016-10-04T05:15:34.018Z,95.32
2016-10-04T05:16:34.039Z,95.03
2016-10-04T05:18:34.284Z,95.03
2016-10-04T05:20:34.325Z,94.65
2016-10-04T05:21:34.152Z,94.56
2016-10-04T05:22:34.167Z,94.65
2016-10-04T05:23:34.208Z,95.03
2016-10-04T05:24:34.214Z,94.46
2016-10-04T05:25:34.236Z,94.37
2016-10-04T05:26:34.256Z,93.98
2016-10-04T05:27:34.281Z,93.98
2016-10-04T05:28:34.306Z,94.56
2016-10-04T05:29:34.324Z,94.17
2016-10-04T05:30:34.348Z,94.27
2016-10-04T05:31:34.376Z,94.37
2016-10-04T05:32:34.387Z,94.37
2016-10-04T05:34:34.434Z,93.88
2016-10-04T05:35:34.457Z,93.79
2016-10-04T05:36:34.481Z,93.32
2016-10-04T05:37:34.499Z,93.41
2016-10-04T05:38:34.523Z,93.51
2016-10-04T05:39:49.465Z,93.88
2016-10-04T05:40:34.564Z,94.17
2016-10-04T05:41:34.588Z,93.6
2016-10-04T05:42:34.613Z,94.08
2016-10-04T05:43:34.628Z,93.41
2016-10-04T05:44:34.653Z,93.6
2016-10-04T05:45:34.674Z,93.88
2016-10-04T05:46:34.702Z,93.79
2016-10-04T05:47:34.721Z,93.51
2016-10-04T05:48:34.740Z,92.84
2016-10-04T05:49:34.766Z,93.03
2016-10-04T05:50:34.785Z,91.88
2016-10-04T05:52:34.832Z,92.36
2016-10-04T05:53:34.851Z,92.03
2016-10-04T05:54:34.876Z,92.17
2016-10-04T05:55:49.819Z,91.79
2016-10-04T05:56:34.918Z,91.79
2016-10-04T05:57:34.940Z,91.74
2016-10-04T05:58:34.962Z,91.07
2016-10-04T05:59:34.985Z,90.98
2016-10-04T06:00:35.013Z,90.69
2016-10-04T06:01:35.046Z,90.31
2016-10-04T06:02:35.057Z,90.03
2016-10-04T06:03:35.078Z,89.64
2016-10-04T06:04:35.095Z,89.45
2016-10-04T06:05:35.125Z,89.07
2016-10-04T06:08:35.194Z,87.3
2016-10-04T06:09:35.217Z,86.54
2016-10-04T06:11:50.191Z,86.63
2016-10-04T06:12:35.301Z,85.3
2016-10-04T06:13:35.319Z,85.77
2016-10-04T06:14:35.345Z,85.39
2016-10-04T06:15:35.370Z,85.97
2016-10-04T06:16:35.403Z,85.58
2016-10-04T06:17:35.422Z,84.34
2016-10-04T06:18:35.699Z,84.86
2016-10-04T06:19:35.474Z,84.34
2016-10-04T06:20:35.751Z,84.86
2016-10-04T06:21:35.530Z,84.67
2016-10-04T06:22:35.553Z,83.91
2016-10-04T06:23:35.580Z,83.34
2016-10-04T06:24:35.613Z,83.62
2016-10-04T06:25:35.637Z,83.34
2016-10-04T06:26:35.667Z,82.86
2016-10-04T06:27:50.615Z,82.95
2016-10-04T06:28:35.722Z,82.76
2016-10-04T06:29:35.750Z,82.19
2016-10-04T06:30:35.782Z,81.81
2016-10-04T06:31:35.799Z,81.71
2016-10-04T06:32:35.828Z,81.81
2016-10-04T06:33:35.861Z,82.29
2016-10-04T06:34:35.892Z,82
2016-10-04T06:35:35.914Z,82.48
2016-10-04T06:36:35.950Z,81.9
2016-10-04T06:37:35.972Z,81.62
2016-10-04T06:38:36.004Z,81.33
2016-10-04T06:39:36.027Z,81.43
2016-10-04T06:40:36.060Z,81.81
2016-10-04T06:41:36.094Z,81.18
2016-10-04T06:42:51.043Z,80.85
2016-10-04T06:43:36.149Z,81.14
2016-10-04T06:44:36.179Z,80.95
2016-10-04T06:45:36.210Z,81.09
2016-10-04T06:46:36.233Z,80.13
2016-10-04T06:47:36.265Z,79.94
2016-10-04T06:48:36.290Z,79.94
2016-10-04T06:49:36.323Z,79.94
2016-10-04T06:50:36.354Z,80.22
2016-10-04T06:51:36.379Z,79.75
2016-10-04T06:52:36.414Z,79.65
2016-10-04T06:53:36.442Z,79.65
2016-10-04T06:55:36.495Z,79.36
2016-10-04T06:56:36.529Z,78.99
2016-10-04T06:57:36.563Z,79.56
2016-10-04T06:58:36.587Z,79.36
2016-10-04T06:59:36.621Z,78.22
2016-10-04T07:00:36.649Z,78.13
2016-10-04T07:01:36.676Z,78.89
2016-10-04T07:02:36.708Z,77.94
2016-10-04T07:03:36.735Z,77.74
2016-10-04T07:04:36.765Z,77.84
2016-10-04T07:05:36.802Z,78.7
2016-10-04T07:06:36.823Z,77.45
2016-10-04T07:07:36.856Z,76.88
2016-10-04T07:08:36.887Z,77.45
2016-10-04T07:10:36.944Z,78.07
2016-10-04T07:11:36.976Z,76.82
2016-10-04T07:12:37.003Z,76.25
2016-10-04T07:13:37.034Z,76.12
2016-10-04T07:14:51.985Z,76.16
2016-10-04T07:15:37.092Z,76.16
2016-10-04T07:16:37.121Z,75.64
2016-10-04T07:17:37.149Z,75.49
2016-10-04T07:18:37.181Z,75.59
2016-10-04T07:19:37.212Z,75.39
2016-10-04T07:20:37.236Z,74.91
2016-10-04T07:21:37.265Z,74.21
2016-10-04T07:22:37.299Z,74.34
2016-10-04T07:23:37.332Z,74.44
2016-10-04T07:24:37.355Z,74.91
2016-10-04T07:25:37.581Z,74.63
2016-10-04T07:26:37.410Z,73.96
2016-10-04T07:27:37.439Z,73.77
2016-10-04T07:28:37.469Z,73.39
2016-10-04T07:29:37.498Z,73.19
2016-10-04T07:30:52.447Z,73.67
2016-10-04T07:31:37.551Z,73.48
2016-10-04T07:32:37.586Z,73.29
2016-10-04T07:33:37.605Z,72.81
2016-10-04T07:34:37.639Z,73.19
2016-10-04T07:35:37.666Z,73.29
2016-10-04T07:36:37.896Z,72.08
2016-10-04T07:38:37.750Z,72.14
2016-10-04T07:39:37.773Z,72.05
2016-10-04T07:40:37.809Z,72.33
2016-10-04T07:41:37.834Z,71.95
2016-10-04T07:43:37.887Z,72.72
2016-10-04T07:44:37.917Z,72.56
2016-10-04T07:46:52.897Z,71.13
2016-10-04T07:47:38.003Z,70.94
2016-10-04T07:48:38.026Z,71.22
2016-10-04T07:49:38.053Z,71.03
2016-10-04T07:50:38.080Z,70.75
2016-10-04T07:51:38.117Z,70.27
2016-10-04T07:52:38.137Z,70.17
2016-10-04T07:53:38.170Z,69.98
2016-10-04T07:54:38.193Z,70.36
2016-10-04T07:55:38.219Z,71.13
2016-10-04T07:56:38.249Z,69.79
2016-10-04T07:57:38.277Z,69.41
2016-10-04T07:58:38.303Z,70.07
2016-10-04T07:59:38.580Z,69.79
2016-10-04T08:00:38.358Z,70.07
2016-10-04T08:01:38.386Z,69.5
2016-10-04T08:02:53.337Z,69.21
2016-10-04T08:03:38.436Z,69.41
2016-10-04T08:04:38.470Z,67.78
2016-10-04T08:05:38.496Z,68.07
2016-10-04T08:06:38.523Z,67.88
2016-10-04T08:07:38.548Z,67.53
2016-10-04T08:08:38.576Z,66.35
2016-10-04T08:09:38.598Z,66.83
2016-10-04T08:10:38.624Z,65.87
2016-10-04T08:11:38.655Z,65.68
2016-10-04T08:12:38.686Z,65.68
2016-10-04T08:13:38.711Z,65.87
2016-10-04T08:15:38.764Z,66.35
2016-10-04T08:16:38.792Z,66.83
2016-10-04T08:17:53.747Z,66.54
2016-10-04T08:18:38.848Z,65.9
2016-10-04T08:19:38.872Z,66
2016-10-04T08:20:38.904Z,65.52
2016-10-04T08:21:38.925Z,65.14
2016-10-04T08:22:39.206Z,65.52
2016-10-04T08:23:38.976Z,65.33
2016-10-04T08:24:39.005Z,65.23
2016-10-04T08:25:39.030Z,65.14
2016-10-04T08:26:39.060Z,65.33
2016-10-04T08:27:39.083Z,64.47
2016-10-04T08:28:39.108Z,64.37
2016-10-04T08:29:39.138Z,64.25
2016-10-04T08:30:39.163Z,64.53
2016-10-04T08:31:39.191Z,65.11
2016-10-04T08:33:39.249Z,64.28
2016-10-04T08:34:39.269Z,64.25
2016-10-04T08:35:39.301Z,64.15
2016-10-04T08:36:39.331Z,64.53
2016-10-04T08:37:39.346Z,65.01
2016-10-04T08:38:39.374Z,64.28
2016-10-04T08:39:39.406Z,63.51
2016-10-04T08:40:39.432Z,63.51
2016-10-04T08:41:39.455Z,64.34
2016-10-04T08:42:39.484Z,64.25
2016-10-04T08:43:39.508Z,64.34
2016-10-04T08:45:39.555Z,64.25
2016-10-04T08:46:39.589Z,63.51
2016-10-04T08:47:39.614Z,62.65
2016-10-04T08:48:39.637Z,63
2016-10-04T08:49:54.588Z,62.27
2016-10-04T08:50:39.690Z,62.17
2016-10-04T08:51:39.716Z,62.37
2016-10-04T08:52:39.743Z,62.27
2016-10-04T08:53:39.769Z,61.22
2016-10-04T08:54:39.795Z,61.31
2016-10-04T08:55:39.819Z,61.98
2016-10-04T08:56:40.094Z,61.47
2016-10-04T08:57:39.873Z,62.62
2016-10-04T08:58:39.900Z,62.24
2016-10-04T08:59:39.922Z,63
2016-10-04T09:00:39.950Z,62.94
2016-10-04T09:01:39.974Z,63.13
2016-10-04T09:02:40.007Z,62.27
2016-10-04T09:05:55.001Z,60.96
2016-10-04T09:06:40.104Z,60.86
2016-10-04T09:07:40.132Z,61.05
2016-10-04T09:08:40.155Z,60.1
2016-10-04T09:09:40.181Z,60.93
2016-10-04T09:10:40.212Z,61.6
2016-10-04T09:11:40.239Z,60.55
2016-10-04T09:12:40.266Z,60.74
2016-10-04T09:13:40.285Z,61.41
2016-10-04T09:14:40.311Z,60.55
2016-10-04T09:15:40.338Z,59.14
2016-10-04T09:16:40.366Z,59.3
2016-10-04T09:17:40.591Z,58.63
2016-10-04T09:18:40.713Z,59.11
2016-10-04T09:19:40.694Z,58.44
2016-10-04T09:20:40.464Z,58.83
2016-10-04T09:21:55.417Z,59.11
2016-10-04T09:22:40.518Z,59.3
2016-10-04T09:23:40.552Z,58.92
2016-10-04T09:24:40.569Z,58.73
2016-10-04T09:25:40.594Z,58.83
2016-10-04T09:26:40.627Z,58.28
2016-10-04T09:27:40.650Z,57.42
2016-10-04T09:28:40.677Z,57.77
2016-10-04T09:29:40.698Z,58.25
2016-10-04T09:30:40.726Z,58.34
2016-10-04T09:31:40.748Z,58.34
2016-10-04T09:32:40.775Z,58.09
2016-10-04T09:34:40.828Z,58.37
2016-10-04T09:35:40.855Z,57.23
2016-10-04T09:36:40.877Z,57.23
2016-10-04T09:37:55.827Z,57.32
2016-10-04T09:38:40.928Z,57.23
2016-10-04T09:39:41.203Z,57.13
2016-10-04T09:40:40.983Z,55.79
2016-10-04T09:41:41.013Z,54.64
2016-10-04T09:42:41.032Z,54.45
2016-10-04T09:43:41.058Z,54.33
2016-10-04T09:44:41.079Z,54.43
2016-10-04T09:45:41.111Z,54.43
2016-10-04T09:46:41.132Z,54.71
2016-10-04T09:47:41.162Z,54.52
2016-10-04T09:48:41.185Z,54.23
2016-10-04T09:49:41.210Z,54.43
2016-10-04T09:50:41.235Z,54.64
2016-10-04T09:51:41.263Z,54.55
2016-10-04T09:52:56.212Z,53.66
2016-10-04T09:53:41.311Z,54.33
2016-10-04T09:54:41.335Z,54.8
2016-10-04T09:55:41.365Z,54.61
2016-10-04T09:56:41.386Z,55
2016-10-04T09:57:41.416Z,55.96
2016-10-04T09:58:41.436Z,55.67
2016-10-04T09:59:41.465Z,56.62
2016-10-04T10:00:41.488Z,56.91
2016-10-04T10:01:41.512Z,56.82
2016-10-04T10:02:41.541Z,57.29
2016-10-04T10:03:41.563Z,57.29
2016-10-04T10:06:41.642Z,56.53
2016-10-04T10:07:41.668Z,55.96
2016-10-04T10:08:41.701Z,54.8
2016-10-04T10:09:42.019Z,54.71
2016-10-04T10:10:41.742Z,54.23
2016-10-04T10:11:41.767Z,54.9
2016-10-04T10:12:41.793Z,54.61
2016-10-04T10:13:41.815Z,54.33
2016-10-04T10:14:41.841Z,54.9
2016-10-04T10:15:41.864Z,54.9
2016-10-04T10:16:41.890Z,54.71
2016-10-04T10:17:41.924Z,54.14
2016-10-04T10:18:41.947Z,54.52
2016-10-04T10:20:41.991Z,55
2016-10-04T10:21:42.017Z,54.9
2016-10-04T10:22:42.043Z,56.15
2016-10-04T10:23:42.069Z,56.34
2016-10-04T10:24:57.015Z,57.1
2016-10-04T10:25:42.115Z,57.32
2016-10-04T10:26:42.138Z,57.04
2016-10-04T10:27:42.162Z,58.37
2016-10-04T10:28:42.185Z,58.28
2016-10-04T10:29:42.212Z,57.7
2016-10-04T10:30:42.241Z,58.28
2016-10-04T10:31:42.263Z,57.42
2016-10-04T10:32:42.289Z,57.23
2016-10-04T10:33:42.315Z,57.13
2016-10-04T10:34:42.337Z,57.13
2016-10-04T10:35:42.364Z,57.8
2016-10-04T10:39:42.460Z,59.69
2016-10-04T10:40:57.406Z,59.91
2016-10-04T10:41:42.509Z,60.45
2016-10-04T10:42:42.530Z,60.1
2016-10-04T10:43:42.555Z,59.23
2016-10-04T10:44:42.580Z,59.78
2016-10-04T10:45:42.608Z,59.23
2016-10-04T10:46:42.632Z,60.06
2016-10-04T10:47:42.661Z,59.78
2016-10-04T10:48:42.679Z,59.52
2016-10-04T10:49:42.700Z,59.72
2016-10-04T10:50:42.727Z,59.62
2016-10-04T10:51:42.753Z,59.62
2016-10-04T10:52:42.774Z,59.72
2016-10-04T10:53:42.799Z,59.23
2016-10-04T10:54:42.824Z,59.2
2016-10-04T10:56:57.794Z,59.52
2016-10-04T10:57:42.907Z,59.05
2016-10-04T10:58:42.920Z,58.18
2016-10-04T10:59:42.949Z,57.9
2016-10-04T11:00:42.972Z,57.51
2016-10-04T11:01:43.005Z,57.61
2016-10-04T11:02:43.021Z,57.68
2016-10-04T11:03:43.044Z,57.48
2016-10-04T11:04:43.067Z,57.42
2016-10-04T11:05:43.090Z,55.88
2016-10-04T11:06:43.116Z,55.6
2016-10-04T11:07:43.137Z,55.51
2016-10-04T11:08:43.161Z,54.74
2016-10-04T11:09:43.185Z,54.93
2016-10-04T11:10:43.210Z,54.93
2016-10-04T11:11:43.234Z,54.93
2016-10-04T11:12:58.179Z,54.93
2016-10-04T11:13:43.282Z,55.98
2016-10-04T11:14:43.311Z,55.69
2016-10-04T11:15:43.327Z,56.27
2016-10-04T11:16:43.354Z,57.04
2016-10-04T11:17:43.381Z,56.56
2016-10-04T11:18:43.406Z,55.88
2016-10-04T11:19:43.423Z,55.88
2016-10-04T11:20:43.452Z,55.98
2016-10-04T11:21:43.469Z,55.88
2016-10-04T11:22:43.500Z,56.27
2016-10-04T11:24:43.554Z,55.31
2016-10-04T11:25:43.572Z,54.93
2016-10-04T11:26:43.596Z,54.83
2016-10-04T11:27:58.556Z,54.93
2016-10-04T11:28:43.642Z,54.93
2016-10-04T11:29:43.668Z,55.69
2016-10-04T11:30:43.690Z,54.86
2016-10-04T11:31:43.713Z,54.57
2016-10-04T11:32:43.738Z,54.86
2016-10-04T11:33:43.763Z,54.38
2016-10-04T11:34:43.790Z,54.86
2016-10-04T11:36:43.834Z,55.05
2016-10-04T11:37:43.855Z,54.67
2016-10-04T11:38:43.880Z,54.77
2016-10-04T11:39:43.905Z,54.48
2016-10-04T11:40:43.929Z,54.1
2016-10-04T11:41:43.955Z,54
2016-10-04T11:42:43.982Z,54.28
2016-10-04T11:44:44.026Z,54.28
2016-10-04T11:45:44.051Z,53.71
2016-10-04T11:46:44.070Z,53.91
2016-10-04T11:47:44.094Z,54.96
2016-10-04T11:48:44.119Z,54.96
2016-10-04T11:49:44.146Z,54.1
2016-10-04T11:50:44.168Z,53.42
2016-10-04T11:51:44.200Z,53.91
2016-10-04T11:52:44.222Z,53.83
2016-10-04T11:53:44.239Z,52.97
2016-10-04T11:54:44.265Z,52.87
2016-10-04T11:55:44.289Z,52.97
2016-10-04T11:56:44.310Z,53.04
2016-10-04T11:57:44.342Z,52.66
2016-10-04T11:58:44.365Z,51.82
2016-10-04T11:59:59.309Z,51.92
2016-10-04T12:00:44.409Z,51.99
2016-10-04T12:01:44.437Z,52.4
2016-10-04T12:02:44.462Z,52.59
2016-10-04T12:03:44.483Z,53.07
2016-10-04T12:04:44.504Z,52.69
2016-10-04T12:05:44.529Z,52.87
2016-10-04T12:06:44.553Z,53.62
2016-10-04T12:07:44.597Z,54.28
2016-10-04T12:08:44.602Z,53.91
2016-10-04T12:09:44.627Z,53.83
2016-10-04T12:10:44.650Z,53.91
2016-10-04T12:12:44.699Z,54.89
2016-10-04T12:13:44.718Z,54.6
2016-10-04T12:14:44.750Z,54.89
2016-10-04T12:15:59.694Z,55.85
2016-10-04T12:16:44.796Z,56.04
2016-10-04T12:17:44.835Z,56.04
2016-10-04T12:18:44.839Z,54.5
2016-10-04T12:19:44.870Z,55.27
2016-10-04T12:20:44.895Z,55.08
2016-10-04T12:21:44.916Z,54.03
2016-10-04T12:22:44.943Z,53.74
2016-10-04T12:23:44.960Z,55.18
2016-10-04T12:24:44.991Z,54.7
2016-10-04T12:25:45.016Z,53.55
2016-10-04T12:27:45.060Z,51.54
2016-10-04T12:29:45.108Z,51.54
2016-10-04T12:32:00.080Z,51.15
2016-10-04T12:32:45.181Z,51.63
2016-10-04T12:33:45.203Z,51.92
2016-10-04T12:34:45.231Z,52.11
2016-10-04T12:35:45.256Z,52.01
2016-10-04T12:36:45.276Z,51.73
2016-10-04T12:37:45.303Z,52.2
2016-10-04T12:38:45.328Z,51.63
2016-10-04T12:39:45.351Z,50.77
2016-10-04T12:40:45.374Z,50.58
2016-10-04T12:41:45.407Z,50.67
2016-10-04T12:42:45.425Z,50.77
2016-10-04T12:43:45.450Z,50.96
2016-10-04T12:44:45.475Z,51.15
2016-10-04T12:45:45.498Z,50.41
2016-10-04T12:48:00.467Z,51.15
2016-10-04T12:48:45.569Z,51.34
2016-10-04T12:49:45.592Z,52.2
2016-10-04T12:50:45.618Z,50.99
2016-10-04T12:51:45.643Z,50.29
2016-10-04T12:52:45.666Z,50.29
2016-10-04T12:53:45.692Z,50.29
2016-10-04T12:54:45.715Z,49.24
2016-10-04T12:55:45.735Z,49.62
2016-10-04T12:56:45.767Z,49.33
2016-10-04T12:57:45.786Z,50
2016-10-04T12:58:45.814Z,50.2
2016-10-04T12:59:45.840Z,50.03
2016-10-04T13:00:45.859Z,50.6
2016-10-04T13:01:45.888Z,50.03
2016-10-04T13:03:00.835Z,50.41
2016-10-04T13:03:45.931Z,50.12
2016-10-04T13:05:45.982Z,50.6
2016-10-04T13:06:46.009Z,50.22
2016-10-04T13:07:46.029Z,50.03
2016-10-04T13:08:46.054Z,50.32
2016-10-04T13:09:46.078Z,50.51
2016-10-04T13:10:46.106Z,50.22
2016-10-04T13:11:46.130Z,50.6
2016-10-04T13:12:46.157Z,51.08
2016-10-04T13:13:46.181Z,51.08
2016-10-04T13:14:46.455Z,51.37
2016-10-04T13:15:46.224Z,51.37
2016-10-04T13:16:46.251Z,51.37
2016-10-04T13:17:46.270Z,51.28
2016-10-04T13:18:46.298Z,51.95
2016-10-04T13:19:46.320Z,52.52
2016-10-04T13:20:46.348Z,52.71
2016-10-04T13:21:46.376Z,52.04
2016-10-04T13:22:46.394Z,51.85
2016-10-04T13:23:46.422Z,52.14
2016-10-04T13:24:46.448Z,52.52
2016-10-04T13:25:46.467Z,53.19
2016-10-04T13:26:46.493Z,52.62
2016-10-04T13:27:46.521Z,52.91
2016-10-04T13:28:46.543Z,52.42
2016-10-04T13:29:46.571Z,51.95
2016-10-04T13:30:46.592Z,52.62
2016-10-04T13:31:46.615Z,52.62
2016-10-04T13:32:46.640Z,52.23
2016-10-04T13:33:46.666Z,52.14
2016-10-04T13:35:01.613Z,52.04
2016-10-04T13:35:46.711Z,51.65
2016-10-04T13:36:46.746Z,51.95
2016-10-04T13:37:46.766Z,52.04
2016-10-04T13:38:46.786Z,52.42
2016-10-04T13:39:46.811Z,52.42
2016-10-04T13:40:46.838Z,52.42
2016-10-04T13:41:46.860Z,52.42
2016-10-04T13:42:46.902Z,52.33
2016-10-04T13:43:46.912Z,52.4
2016-10-04T13:44:46.934Z,52.71
2016-10-04T13:45:46.975Z,52.52
2016-10-04T13:47:47.004Z,52.71
2016-10-04T13:48:47.030Z,52.81